createdAt,value
2023-02-19T00:01:25.918Z,101172.97
2023-02-19T00:03:56.415Z,101178.66
2023-02-19T00:06:24.869Z,101180.50
2023-02-19T00:08:51.397Z,101183.44
2023-02-19T00:11:20.153Z,101191.75
2023-02-19T00:13:49.274Z,101193.03
2023-02-19T00:16:18.448Z,101196.59
2023-02-19T00:18:45.390Z,101192.72
2023-02-19T00:21:12.322Z,101202.56
2023-02-19T00:23:39.146Z,101190.50
2023-02-19T00:26:17.490Z,101198.78
2023-02-19T00:28:45.713Z,101204.94
2023-02-19T00:31:19.276Z,101192.75
2023-02-19T00:33:48.864Z,101199.22
2023-02-19T00:36:15.778Z,101203.97
2023-02-19T00:38:43.572Z,101205.38
2023-02-19T00:41:20.095Z,101208.38
2023-02-19T00:43:54.720Z,101212.03
2023-02-19T00:46:31.674Z,101214.38
2023-02-19T00:48:58.982Z,101222.50
2023-02-19T00:51:28.664Z,101219.28
2023-02-19T00:53:55.499Z,101207.06
2023-02-19T00:56:22.442Z,101201.59
2023-02-19T00:58:49.378Z,101210.34
2023-02-19T01:01:16.722Z,101210.03
2023-02-19T01:03:43.856Z,101204.00
2023-02-19T01:06:11.332Z,101200.75
2023-02-19T01:08:38.338Z,101206.25
2023-02-19T01:11:05.800Z,101199.59
2023-02-19T01:13:33.490Z,101199.81
2023-02-19T01:16:21.248Z,101203.53
2023-02-19T01:18:49.288Z,101208.59
2023-02-19T01:21:21.896Z,101203.97
2023-02-19T01:23:53.385Z,101202.94
2023-02-19T01:26:22.713Z,101207.13
2023-02-19T01:28:49.788Z,101211.06
2023-02-19T01:31:20.357Z,101208.66
2023-02-19T01:33:48.792Z,101206.84
2023-02-19T01:36:15.886Z,101216.69
2023-02-19T01:38:42.834Z,101200.28
2023-02-19T01:41:12.732Z,101200.44
2023-02-19T01:44:04.388Z,101207.97
2023-02-19T01:46:33.344Z,101207.88
2023-02-19T01:49:04.738Z,101217.34
2023-02-19T01:51:32.675Z,101210.56
2023-02-19T01:54:00.729Z,101211.63
2023-02-19T01:56:27.757Z,101225.69
2023-02-19T01:58:54.738Z,101207.69
2023-02-19T02:01:21.457Z,101221.13
2023-02-19T02:03:49.005Z,101218.75
2023-02-19T02:06:25.034Z,101213.69
2023-02-19T02:09:12.741Z,101211.84
2023-02-19T02:11:42.749Z,101213.94
2023-02-19T02:14:09.214Z,101218.69
2023-02-19T02:16:52.710Z,101212.03
2023-02-19T02:19:44.080Z,101205.66
2023-02-19T02:22:21.129Z,101207.78
2023-02-19T02:25:21.440Z,101208.16
2023-02-19T02:27:53.937Z,101198.47
2023-02-19T02:30:36.036Z,101197.41
2023-02-19T02:33:07.300Z,101193.22
2023-02-19T02:35:40.051Z,101188.00
2023-02-19T02:38:08.416Z,101196.09
2023-02-19T02:40:34.989Z,101199.91
2023-02-19T02:43:01.650Z,101206.25
2023-02-19T02:45:35.626Z,101211.09
2023-02-19T02:48:25.184Z,101202.19
2023-02-19T02:51:07.384Z,101199.03
2023-02-19T02:54:00.555Z,101196.19
2023-02-19T02:56:27.113Z,101200.44
2023-02-19T02:58:54.511Z,101204.59
2023-02-19T03:01:43.497Z,101202.25
2023-02-19T03:04:14.381Z,101200.47
2023-02-19T03:06:42.201Z,101192.03
2023-02-19T03:09:15.308Z,101214.44
2023-02-19T03:12:03.367Z,101206.78
2023-02-19T03:14:58.017Z,101199.03
2023-02-19T03:17:54.159Z,101195.53
2023-02-19T03:20:23.334Z,101198.69
2023-02-19T03:22:51.258Z,101204.38
2023-02-19T03:25:38.721Z,101220.59
2023-02-19T03:28:07.479Z,101209.56
2023-02-19T03:30:36.870Z,101214.03
2023-02-19T03:33:09.306Z,101215.94
2023-02-19T03:35:42.475Z,101214.44
2023-02-19T03:38:13.482Z,101221.41
2023-02-19T03:41:10.850Z,101214.94
2023-02-19T03:43:54.242Z,101233.16
2023-02-19T03:46:23.251Z,101236.16
2023-02-19T03:49:00.366Z,101231.13
2023-02-19T03:51:32.990Z,101237.88
2023-02-19T03:54:15.252Z,101241.84
2023-02-19T03:56:52.528Z,101247.50
2023-02-19T03:59:28.305Z,101251.41
2023-02-19T04:02:05.729Z,101236.59
2023-02-19T04:04:57.654Z,101239.59
2023-02-19T04:07:25.676Z,101249.25
2023-02-19T04:09:52.239Z,101262.88
2023-02-19T04:12:19.185Z,101268.78
2023-02-19T04:14:53.077Z,101266.44
2023-02-19T04:17:24.011Z,101268.31
2023-02-19T04:19:51.635Z,101270.41
2023-02-19T04:22:18.430Z,101271.63
2023-02-19T04:24:48.316Z,101281.69
2023-02-19T04:27:15.066Z,101285.34
2023-02-19T04:29:41.602Z,101294.75
2023-02-19T04:32:10.851Z,101293.63
2023-02-19T04:34:37.327Z,101306.78
2023-02-19T04:37:04.012Z,101309.41
2023-02-19T04:39:30.556Z,101305.75
2023-02-19T04:41:57.094Z,101312.22
2023-02-19T04:44:23.601Z,101304.72
2023-02-19T04:46:50.062Z,101311.63
2023-02-19T04:49:16.525Z,101305.53
2023-02-19T04:51:43.000Z,101307.31
2023-02-19T04:54:09.594Z,101310.00
2023-02-19T04:56:36.054Z,101308.44
2023-02-19T04:59:02.572Z,101314.47
2023-02-19T05:01:29.303Z,101313.78
2023-02-19T05:03:55.899Z,101306.72
2023-02-19T05:06:22.384Z,101317.38
2023-02-19T05:08:48.958Z,101318.25
2023-02-19T05:11:15.469Z,101320.72
2023-02-19T05:13:42.081Z,101327.28
2023-02-19T05:16:13.971Z,101333.31
2023-02-19T05:18:41.416Z,101335.06
2023-02-19T05:21:08.517Z,101333.41
2023-02-19T05:23:35.333Z,101343.34
2023-02-19T05:26:09.584Z,101357.84
2023-02-19T05:28:36.337Z,101350.00
2023-02-19T05:31:07.872Z,101355.22
2023-02-19T05:33:34.939Z,101366.78
2023-02-19T05:36:06.078Z,101357.28
2023-02-19T05:38:32.566Z,101362.09
2023-02-19T05:41:08.606Z,101361.78
2023-02-19T05:43:35.372Z,101366.66
2023-02-19T05:46:01.879Z,101371.44
2023-02-19T05:48:28.382Z,101373.81
2023-02-19T05:50:54.882Z,101376.06
2023-02-19T05:53:21.332Z,101383.84
2023-02-19T05:55:47.784Z,101395.06
2023-02-19T05:58:14.235Z,101408.47
2023-02-19T06:00:40.710Z,101411.75
2023-02-19T06:03:07.227Z,101405.38
2023-02-19T06:05:33.717Z,101404.41
2023-02-19T06:08:00.161Z,101405.06
2023-02-19T06:10:28.308Z,101404.72
2023-02-19T06:12:55.154Z,101407.16
2023-02-19T06:15:21.927Z,101409.50
2023-02-19T06:17:48.842Z,101429.06
2023-02-19T06:20:15.487Z,101428.53
2023-02-19T06:22:41.980Z,101440.13
2023-02-19T06:25:12.525Z,101443.19
2023-02-19T06:27:39.534Z,101439.69
2023-02-19T06:30:06.634Z,101439.88
2023-02-19T06:32:33.242Z,101447.00
2023-02-19T06:34:59.792Z,101451.41
2023-02-19T06:37:26.230Z,101457.81
2023-02-19T06:39:52.720Z,101461.91
2023-02-19T06:42:19.285Z,101463.69
2023-02-19T06:44:45.780Z,101468.88
2023-02-19T06:47:12.276Z,101475.22
2023-02-19T06:49:41.820Z,101475.78
2023-02-19T06:52:08.475Z,101475.31
2023-02-19T06:54:34.963Z,101475.78
2023-02-19T06:57:01.683Z,101488.47
2023-02-19T06:59:28.231Z,101487.69
2023-02-19T07:01:54.683Z,101491.69
2023-02-19T07:04:21.242Z,101503.59
2023-02-19T07:06:47.771Z,101513.97
2023-02-19T07:09:14.313Z,101519.69
2023-02-19T07:11:40.810Z,101526.00
2023-02-19T07:14:08.871Z,101537.75
2023-02-19T07:16:36.258Z,101542.69
2023-02-19T07:19:02.997Z,101543.72
2023-02-19T07:21:29.764Z,101550.00
2023-02-19T07:23:57.044Z,101553.16
2023-02-19T07:26:24.036Z,101547.19
2023-02-19T07:28:51.860Z,101551.94
2023-02-19T07:31:20.061Z,101558.09
2023-02-19T07:33:47.200Z,101560.53
2023-02-19T07:36:15.240Z,101568.31
2023-02-19T07:38:41.712Z,101573.44
2023-02-19T07:41:08.592Z,101572.66
2023-02-19T07:43:36.600Z,101575.81
2023-02-19T07:46:05.027Z,101583.59
2023-02-19T07:48:31.518Z,101585.44
2023-02-19T07:51:00.059Z,101601.28
2023-02-19T07:53:27.417Z,101612.59
2023-02-19T07:55:54.022Z,101608.38
2023-02-19T07:58:20.479Z,101608.13
2023-02-19T08:00:46.950Z,101607.22
2023-02-19T08:03:13.440Z,101616.44
2023-02-19T08:05:42.203Z,101601.75
2023-02-19T08:08:10.873Z,101610.41
2023-02-19T08:10:55.996Z,101603.91
2023-02-19T08:13:23.206Z,101601.44
2023-02-19T08:15:52.134Z,101609.59
2023-02-19T08:18:20.578Z,101610.78
2023-02-19T08:20:47.214Z,101616.44
2023-02-19T08:23:14.013Z,101606.97
2023-02-19T08:25:41.400Z,101606.28
2023-02-19T08:28:09.903Z,101619.38
2023-02-19T08:30:38.515Z,101621.19
2023-02-19T08:33:06.813Z,101621.31
2023-02-19T08:35:35.804Z,101624.22
2023-02-19T08:38:02.904Z,101642.53
2023-02-19T08:40:29.461Z,101649.59
2023-02-19T08:42:55.930Z,101643.78
2023-02-19T08:45:24.279Z,101642.25
2023-02-19T08:47:50.841Z,101650.38
2023-02-19T08:50:17.328Z,101647.03
2023-02-19T08:52:43.800Z,101660.19
2023-02-19T08:55:10.337Z,101670.63
2023-02-19T08:57:41.585Z,101674.69
2023-02-19T09:00:09.096Z,101675.06
2023-02-19T09:02:35.985Z,101682.09
2023-02-19T09:05:02.509Z,101689.03
2023-02-19T09:07:29.046Z,101691.72
2023-02-19T09:09:55.508Z,101706.50
2023-02-19T09:12:21.971Z,101699.53
2023-02-19T09:14:48.619Z,101707.69
2023-02-19T09:17:15.127Z,101706.75
2023-02-19T09:19:41.903Z,101711.25
2023-02-19T09:22:08.659Z,101725.41
2023-02-19T09:24:35.398Z,101730.38
2023-02-19T09:27:01.914Z,101727.31
2023-02-19T09:29:29.096Z,101725.91
2023-02-19T09:31:59.554Z,101716.63
2023-02-19T09:34:27.301Z,101734.66
2023-02-19T09:36:54.722Z,101732.66
2023-02-19T09:39:21.498Z,101718.94
2023-02-19T09:41:56.109Z,101718.94
2023-02-19T09:44:29.262Z,101715.06
2023-02-19T09:46:56.332Z,101723.00
2023-02-19T09:49:30.943Z,101718.94
2023-02-19T09:52:07.277Z,101731.41
2023-02-19T09:54:39.568Z,101737.31
2023-02-19T09:57:13.187Z,101749.75
2023-02-19T09:59:42.461Z,101750.16
2023-02-19T10:02:16.151Z,101765.84
2023-02-19T10:04:44.043Z,101764.06
2023-02-19T10:07:13.410Z,101772.00
2023-02-19T10:09:39.982Z,101777.09
2023-02-19T10:12:19.280Z,101790.94
2023-02-19T10:14:49.114Z,101803.69
2023-02-19T10:17:27.667Z,101796.25
2023-02-19T10:19:54.247Z,101805.75
2023-02-19T10:22:20.782Z,101814.09
2023-02-19T10:24:51.747Z,101807.59
2023-02-19T10:27:18.743Z,101809.66
2023-02-19T10:29:46.901Z,101805.41
2023-02-19T10:32:24.165Z,101809.41
2023-02-19T10:35:09.633Z,101810.19
2023-02-19T10:37:36.886Z,101811.47
2023-02-19T10:40:03.607Z,101817.19
2023-02-19T10:42:30.173Z,101820.69
2023-02-19T10:45:01.808Z,101819.09
2023-02-19T10:47:30.255Z,101818.03
2023-02-19T10:49:58.410Z,101836.31
2023-02-19T10:52:28.695Z,101833.94
2023-02-19T10:55:25.705Z,101841.28
2023-02-19T10:57:52.164Z,101840.31
2023-02-19T11:00:30.557Z,101846.47
2023-02-19T11:03:32.684Z,101850.44
2023-02-19T11:06:03.856Z,101848.84
2023-02-19T11:08:31.318Z,101849.69
2023-02-19T11:10:57.856Z,101849.03
2023-02-19T11:13:33.296Z,101858.63
2023-02-19T11:16:00.322Z,101858.00
2023-02-19T11:18:33.382Z,101856.13
2023-02-19T11:21:05.122Z,101856.19
2023-02-19T11:23:37.386Z,101864.03
2023-02-19T11:26:06.541Z,101870.34
2023-02-19T11:28:35.465Z,101867.59
2023-02-19T11:31:20.387Z,101865.72
2023-02-19T11:33:57.247Z,101874.16
2023-02-19T11:36:31.026Z,101878.94
2023-02-19T11:38:59.207Z,101874.50
2023-02-19T11:41:44.011Z,101883.31
2023-02-19T11:44:31.811Z,101882.78
2023-02-19T11:47:17.260Z,101875.16
2023-02-19T11:49:50.283Z,101864.13
2023-02-19T11:52:58.910Z,101863.69
2023-02-19T11:55:47.030Z,101859.09
2023-02-19T11:58:44.519Z,101870.06
2023-02-19T12:01:33.773Z,101867.19
2023-02-19T12:04:31.194Z,101859.97
2023-02-19T12:07:11.702Z,101873.59
2023-02-19T12:10:04.146Z,101868.44
2023-02-19T12:12:41.692Z,101869.91
2023-02-19T12:15:26.406Z,101875.69
2023-02-19T12:18:00.031Z,101881.09
2023-02-19T12:20:41.665Z,101881.09
2023-02-19T12:23:38.455Z,101885.44
2023-02-19T12:26:16.925Z,101879.78
2023-02-19T12:28:43.346Z,101870.03
2023-02-19T12:31:34.672Z,101866.44
2023-02-19T12:34:10.788Z,101866.06
2023-02-19T12:36:54.497Z,101881.31
2023-02-19T12:39:34.258Z,101872.84
2023-02-19T12:42:25.974Z,101886.81
2023-02-19T12:44:58.783Z,101873.63
2023-02-19T12:47:29.893Z,101868.31
2023-02-19T12:50:24.755Z,101866.59
2023-02-19T12:52:57.318Z,101857.44
2023-02-19T12:55:34.572Z,101851.34
2023-02-19T12:58:05.885Z,101842.91
2023-02-19T13:00:36.734Z,101844.44
2023-02-19T13:03:09.991Z,101850.03
2023-02-19T13:06:00.004Z,101842.13
2023-02-19T13:08:36.566Z,101845.66
2023-02-19T13:11:15.858Z,101845.53
2023-02-19T13:14:24.429Z,101844.88
2023-02-19T13:16:57.520Z,101847.41
2023-02-19T13:19:25.379Z,101844.94
2023-02-19T13:22:36.960Z,101854.59
2023-02-19T13:25:08.126Z,101860.50
2023-02-19T13:28:24.573Z,101855.41
2023-02-19T13:31:08.618Z,101856.81
2023-02-19T13:34:20.748Z,101863.50
2023-02-19T13:36:49.893Z,101846.34
2023-02-19T13:39:18.385Z,101847.47
2023-02-19T13:42:04.189Z,101843.22
2023-02-19T13:44:33.927Z,101844.75
2023-02-19T13:47:01.265Z,101841.28
2023-02-19T13:49:37.255Z,101856.03
2023-02-19T13:52:28.941Z,101853.19
2023-02-19T13:55:33.358Z,101856.50
2023-02-19T13:58:33.734Z,101858.44
2023-02-19T14:01:10.428Z,101859.81
2023-02-19T14:03:37.896Z,101861.56
2023-02-19T14:06:10.584Z,101861.53
2023-02-19T14:08:51.406Z,101857.53
2023-02-19T14:11:48.242Z,101861.69
2023-02-19T14:14:37.440Z,101863.94
2023-02-19T14:17:09.835Z,101860.78
2023-02-19T14:19:42.641Z,101865.78
2023-02-19T14:22:56.862Z,101866.34
2023-02-19T14:25:40.112Z,101853.44
2023-02-19T14:28:15.714Z,101857.69
2023-02-19T14:30:50.294Z,101850.53
2023-02-19T14:33:19.881Z,101842.50
2023-02-19T14:35:49.229Z,101839.63
2023-02-19T14:38:26.132Z,101843.63
2023-02-19T14:40:53.800Z,101831.66
2023-02-19T14:43:22.691Z,101834.41
2023-02-19T14:46:00.944Z,101817.97
2023-02-19T14:48:34.623Z,101813.41
2023-02-19T14:51:06.120Z,101815.66
2023-02-19T14:53:37.859Z,101823.44
2023-02-19T14:56:05.198Z,101832.03
2023-02-19T14:58:32.736Z,101828.47
2023-02-19T15:00:59.832Z,101830.50
2023-02-19T15:03:31.218Z,101835.63
2023-02-19T15:06:16.429Z,101834.88
2023-02-19T15:08:52.516Z,101850.00
2023-02-19T15:11:21.917Z,101838.56
2023-02-19T15:13:54.753Z,101843.97
2023-02-19T15:16:24.669Z,101850.13
2023-02-19T15:18:52.545Z,101837.72
2023-02-19T15:21:23.933Z,101833.59
2023-02-19T15:23:51.504Z,101835.38
2023-02-19T15:26:21.611Z,101837.50
2023-02-19T15:28:57.336Z,101842.13
2023-02-19T15:31:23.913Z,101840.75
2023-02-19T15:33:53.822Z,101837.97
2023-02-19T15:36:28.140Z,101842.75
2023-02-19T15:38:56.963Z,101848.56
2023-02-19T15:41:25.969Z,101858.75
2023-02-19T15:44:24.588Z,101858.59
2023-02-19T15:46:51.261Z,101861.28
2023-02-19T15:49:24.339Z,101853.66
2023-02-19T15:51:56.759Z,101849.44
2023-02-19T15:54:34.331Z,101859.75
2023-02-19T15:57:07.442Z,101864.97
2023-02-19T15:59:41.311Z,101856.72
2023-02-19T16:02:13.475Z,101853.06
2023-02-19T16:04:42.018Z,101857.25
2023-02-19T16:07:24.006Z,101851.53
2023-02-19T16:10:05.809Z,101860.66
2023-02-19T16:12:32.792Z,101859.09
2023-02-19T16:14:59.329Z,101870.28
2023-02-19T16:17:28.113Z,101873.56
2023-02-19T16:19:57.671Z,101877.59
2023-02-19T16:22:26.722Z,101878.81
2023-02-19T16:24:59.059Z,101883.72
2023-02-19T16:27:40.676Z,101875.63
2023-02-19T16:30:16.239Z,101866.16
2023-02-19T16:32:45.395Z,101880.59
2023-02-19T16:35:38.465Z,101875.13
2023-02-19T16:38:13.683Z,101877.78
2023-02-19T16:40:43.188Z,101883.44
2023-02-19T16:43:15.689Z,101884.44
2023-02-19T16:45:45.918Z,101888.69
2023-02-19T16:48:12.903Z,101884.41
2023-02-19T16:50:41.531Z,101876.34
2023-02-19T16:53:19.334Z,101874.53
2023-02-19T16:55:46.162Z,101866.00
2023-02-19T16:58:12.730Z,101865.31
2023-02-19T17:00:39.942Z,101871.97
2023-02-19T17:03:11.956Z,101862.47
2023-02-19T17:05:39.830Z,101866.13
2023-02-19T17:08:37.120Z,101867.28
2023-02-19T17:11:06.032Z,101865.13
2023-02-19T17:13:33.736Z,101870.34
2023-02-19T17:16:00.255Z,101868.69
2023-02-19T17:18:26.793Z,101873.78
2023-02-19T17:21:21.353Z,101886.16
2023-02-19T17:23:47.936Z,101882.28
2023-02-19T17:26:20.473Z,101878.75
2023-02-19T17:28:47.396Z,101887.47
2023-02-19T17:31:17.436Z,101891.41
2023-02-19T17:33:44.503Z,101892.50
2023-02-19T17:36:22.129Z,101899.34
2023-02-19T17:38:48.679Z,101895.84
2023-02-19T17:41:15.451Z,101899.75
2023-02-19T17:43:41.882Z,101905.72
2023-02-19T17:46:17.052Z,101905.31
2023-02-19T17:48:43.643Z,101906.13
2023-02-19T17:51:10.698Z,101907.47
2023-02-19T17:53:37.524Z,101907.38
2023-02-19T17:56:04.379Z,101905.16
2023-02-19T17:58:30.886Z,101907.00
2023-02-19T18:00:57.527Z,101904.09
2023-02-19T18:03:24.843Z,101899.41
2023-02-19T18:05:51.611Z,101906.06
2023-02-19T18:08:18.277Z,101906.09
2023-02-19T18:10:44.901Z,101901.94
2023-02-19T18:13:11.863Z,101902.31
2023-02-19T18:15:38.385Z,101896.53
2023-02-19T18:18:05.007Z,101899.34
2023-02-19T18:20:31.864Z,101899.19
2023-02-19T18:22:58.741Z,101889.72
2023-02-19T18:25:25.414Z,101890.88
2023-02-19T18:27:51.929Z,101888.50
2023-02-19T18:30:20.478Z,101874.22
2023-02-19T18:32:49.902Z,101881.53
2023-02-19T18:35:17.788Z,101878.84
2023-02-19T18:37:44.291Z,101875.47
2023-02-19T18:40:11.885Z,101866.47
2023-02-19T18:42:39.224Z,101872.84
2023-02-19T18:45:05.877Z,101872.22
2023-02-19T18:47:32.326Z,101871.16
2023-02-19T18:49:59.612Z,101871.66
2023-02-19T18:52:27.205Z,101865.38
2023-02-19T18:54:55.195Z,101869.22
2023-02-19T18:57:22.723Z,101847.81
2023-02-19T18:59:49.775Z,101852.16
2023-02-19T19:02:16.391Z,101853.50
2023-02-19T19:04:43.297Z,101842.75
2023-02-19T19:07:10.367Z,101840.41
2023-02-19T19:09:37.039Z,101840.91
2023-02-19T19:12:03.961Z,101835.84
2023-02-19T19:14:30.430Z,101832.59
2023-02-19T19:16:56.994Z,101840.66
2023-02-19T19:19:23.479Z,101839.78
2023-02-19T19:21:53.282Z,101841.53
2023-02-19T19:24:20.518Z,101840.81
2023-02-19T19:26:48.996Z,101842.63
2023-02-19T19:29:17.229Z,101842.91
2023-02-19T19:31:44.435Z,101847.59
2023-02-19T19:34:11.702Z,101836.78
2023-02-19T19:36:38.507Z,101853.81
2023-02-19T19:39:05.146Z,101849.00
2023-02-19T19:41:31.936Z,101849.69
2023-02-19T19:44:02.568Z,101840.81
2023-02-19T19:46:29.141Z,101837.44
2023-02-19T19:48:55.617Z,101850.81
2023-02-19T19:51:22.065Z,101855.03
2023-02-19T19:53:49.367Z,101842.63
2023-02-19T19:56:16.938Z,101861.91
2023-02-19T19:58:43.474Z,101856.00
2023-02-19T20:01:10.335Z,101833.91
2023-02-19T20:03:37.659Z,101823.13
2023-02-19T20:06:04.434Z,101841.31
2023-02-19T20:08:30.916Z,101842.81
2023-02-19T20:10:57.387Z,101825.88
2023-02-19T20:13:24.731Z,101819.28
2023-02-19T20:15:51.880Z,101810.56
2023-02-19T20:18:18.366Z,101819.38
2023-02-19T20:20:44.845Z,101820.09
2023-02-19T20:23:11.376Z,101815.59
2023-02-19T20:25:37.906Z,101811.19
2023-02-19T20:28:04.486Z,101815.84
2023-02-19T20:30:30.991Z,101813.28
2023-02-19T20:32:57.562Z,101819.63
2023-02-19T20:35:28.466Z,101813.69
2023-02-19T20:37:55.602Z,101804.72
2023-02-19T20:40:27.344Z,101800.81
2023-02-19T20:42:54.139Z,101786.78
2023-02-19T20:45:21.379Z,101787.94
2023-02-19T20:47:48.032Z,101790.34
2023-02-19T20:50:17.358Z,101797.97
2023-02-19T20:52:43.980Z,101790.53
2023-02-19T20:55:10.561Z,101785.09
2023-02-19T20:57:37.616Z,101777.84
2023-02-19T21:00:05.705Z,101783.53
2023-02-19T21:02:32.216Z,101790.38
2023-02-19T21:04:58.772Z,101793.81
2023-02-19T21:07:25.606Z,101796.00
2023-02-19T21:09:52.640Z,101801.34
2023-02-19T21:12:20.466Z,101788.09
2023-02-19T21:14:47.107Z,101794.19
2023-02-19T21:17:13.698Z,101799.19
2023-02-19T21:19:40.264Z,101794.16
2023-02-19T21:22:06.775Z,101786.56
2023-02-19T21:24:33.680Z,101790.22
2023-02-19T21:27:00.437Z,101790.47
2023-02-19T21:29:27.200Z,101790.53
2023-02-19T21:31:56.008Z,101780.31
2023-02-19T21:34:28.511Z,101783.88
2023-02-19T21:36:57.500Z,101775.59
2023-02-19T21:39:25.632Z,101771.78
2023-02-19T21:41:52.323Z,101771.78
2023-02-19T21:44:21.256Z,101759.50
2023-02-19T21:46:48.109Z,101753.84
2023-02-19T21:49:14.618Z,101746.09
2023-02-19T21:51:42.706Z,101747.31
2023-02-19T21:54:24.708Z,101758.75
2023-02-19T21:56:52.579Z,101750.72
2023-02-19T21:59:20.333Z,101752.47
2023-02-19T22:01:47.124Z,101752.91
2023-02-19T22:04:16.910Z,101747.31
2023-02-19T22:06:44.219Z,101739.06
2023-02-19T22:09:11.176Z,101742.97
2023-02-19T22:11:38.181Z,101747.97
2023-02-19T22:14:04.671Z,101752.97
2023-02-19T22:16:31.273Z,101735.94
2023-02-19T22:18:59.287Z,101732.31
2023-02-19T22:21:33.633Z,101744.56
2023-02-19T22:24:01.393Z,101732.44
2023-02-19T22:26:34.568Z,101726.50
2023-02-19T22:29:05.928Z,101713.00
2023-02-19T22:31:32.957Z,101720.78
2023-02-19T22:33:59.515Z,101714.56
2023-02-19T22:36:28.634Z,101714.25
2023-02-19T22:38:55.105Z,101728.84
2023-02-19T22:41:21.747Z,101725.72
2023-02-19T22:43:48.991Z,101721.66
2023-02-19T22:46:19.499Z,101724.84
2023-02-19T22:48:46.327Z,101718.50
2023-02-19T22:51:15.143Z,101720.69
2023-02-19T22:53:51.688Z,101719.72
2023-02-19T22:56:19.614Z,101721.53
2023-02-19T22:58:46.071Z,101718.88
2023-02-19T23:01:13.413Z,101715.34
2023-02-19T23:03:57.168Z,101708.41
2023-02-19T23:06:28.592Z,101694.38
2023-02-19T23:08:56.715Z,101694.47
2023-02-19T23:11:25.749Z,101697.84
2023-02-19T23:13:52.683Z,101692.97
2023-02-19T23:16:19.240Z,101691.88
2023-02-19T23:18:45.988Z,101696.47
2023-02-19T23:21:13.265Z,101683.91
2023-02-19T23:23:43.525Z,101678.69
2023-02-19T23:26:10.532Z,101671.41
2023-02-19T23:28:39.200Z,101667.78
2023-02-19T23:31:05.911Z,101661.81
2023-02-19T23:33:32.505Z,101661.66
2023-02-19T23:35:59.272Z,101649.72
2023-02-19T23:38:25.749Z,101641.81
2023-02-19T23:40:52.239Z,101637.19
2023-02-19T23:43:18.705Z,101634.41
2023-02-19T23:45:45.153Z,101629.81
2023-02-19T23:48:11.813Z,101615.25
2023-02-19T23:50:38.368Z,101608.19
2023-02-19T23:53:04.873Z,101596.13
2023-02-19T23:55:31.311Z,101594.84
2023-02-19T23:57:57.785Z,101583.75
